Colfax, New Mexico
Current Conditions -  °F | °C
As of 10:53 PM on Tuesday 25 Nov 2014 (Local Time) from KRTN Reporting Station
Clear Clear  
Wind Chill: 29°   Ceiling: Unl
Heat Index: 33°   Visibility: 10mi
Dew Point: 17°   Wind: 5mph
Humidity: 52%   Direction: NA
Pressure: 30.06"   Gusts: NA
Location:  36.7885°N, 104.452°W
Report Text: KRTN 260553Z AUTO VRB04KT 10SM CLR 01/M08 A3006 RMK AO2 SLP181 T00061083 10089 21006 53003
Loading
Personal Weather Stations






























Interactive Weather Map New forecast layout! Learn more

10-Day Weather Forecast

Advertisements
Track Severe Weather on mobile